Overview Statistics Trail Chart Weather Telemetry Raw packets
 

This is the latest recevied weather packets stored in our database for station/object K6CEG. If no packets are shown the sender has not sent any weather packets the latest 10 day(s).

<< 7 8 9 10 11 12 13 >>
Time Temp. Humidity Pressure Rain* Wind** Luminosity Snow
1788628397 27.78° C 40% 1016.7 hPa 0 mm - 629 W/m² -
1788628093 27.78° C 39% 1016.5 hPa 0 mm - 602 W/m² -
1788627803 27.78° C 38% 1016.8 hPa 0 mm - 567 W/m² -
1788627488 26.67° C 41% 1016.5 hPa 0 mm - 571 W/m² -
1788627184 26.67° C 42% 1016.5 hPa 0 mm - 524 W/m² -
1788626883 26.67° C 42% 1016.5 hPa 0 mm - 499 W/m² -
1788626578 26.11° C 44% 1016.5 hPa 0 mm - 478 W/m² -
1788626274 25.56° C 46% 1016.5 hPa 0 mm - 471 W/m² -
1788625974 26.11° C 46% 1016.5 hPa 0 mm - 437 W/m² -
1788625666 26.11° C 46% 1016.4 hPa 0 mm - 385 W/m² -
1788625365 25.56° C 47% 1016.5 hPa 0 mm - 67 W/m² -
1788625060 25.56° C 48% 1016.6 hPa 0 mm - 53 W/m² -
1788624759 24.44° C 50% 1016.5 hPa 0 mm - 49 W/m² -
1788624458 23.89° C 53% 1016.4 hPa 0 mm - 54 W/m² -
1788624157 23.89° C 54% 1016.5 hPa 0 mm - 80 W/m² -
1788623852 23.89° C 53% 1016.6 hPa 0 mm - 248 W/m² -
1788623551 23.33° C 56% 1016.3 hPa 0 mm - 223 W/m² -
1788623245 23.89° C 57% 1016.6 hPa 0 mm - 195 W/m² -
1788622941 22.78° C 58% 1016.7 hPa 0 mm - 198 W/m² -
1788622637 22.22° C 60% 1016.2 hPa 0 mm - 203 W/m² -
1788622332 22.22° C 62% 1016.3 hPa 0 mm - 206 W/m² -
1788622027 21.67° C 62% 1016.1 hPa 0 mm - 167 W/m² -
1788621721 21.67° C 62% 1016.1 hPa 0 mm - 168 W/m² -
1788621421 22.22° C 63% 1016.5 hPa 0 mm - 150 W/m² -
1788621117 21.11° C 65% 1016.4 hPa 0 mm - 139 W/m² -

* Rain latest hour (hover to see other rain measurements)
** Current wind speed in m/s (hover to see current wind gust speed)